Time;durP1;ratioP1;P1;durP2;ratioP2;P2;SDS_P1;SDS_P2;PMS_P1;PMS_P2;Temp;Humidity;BMP_temperature;BMP_pressure;BME280_temperature;BME280_humidity;BME280_pressure;Samples;Min_cycle;Max_cycle;Signal;HPM_P1;HPM_P2
2022/09/03 00:00:53;;;;;;;2.00;1.27;;;18.70;56.30;;;;;;2568543;23;20132;-73
2022/09/03 00:02:04;;;;;;;2.83;1.35;;;18.70;56.40;;;;;;2555383;23;20013;-73
2022/09/03 00:03:27;;;;;;;5.28;1.10;;;18.70;56.60;;;;;;2557459;23;20005;-73
2022/09/03 00:04:42;;;;;;;2.45;1.48;;;18.60;56.50;;;;;;2568665;23;20527;-73
2022/09/03 00:06:02;;;;;;;2.20;1.40;;;18.60;56.60;;;;;;2568286;23;20000;-73
2022/09/03 00:07:10;;;;;;;1.70;1.40;;;18.60;56.70;;;;;;2568773;23;20000;-73
2022/09/03 00:08:30;;;;;;;1.83;1.17;;;18.50;56.60;;;;;;2555627;23;20005;-73
2022/09/03 00:09:42;;;;;;;2.95;1.67;;;18.50;56.40;;;;;;2560236;23;20004;-73
2022/09/03 00:11:00;;;;;;;1.42;1.15;;;18.60;56.70;;;;;;2555443;23;20051;-73
2022/09/03 00:12:09;;;;;;;2.17;1.10;;;18.50;56.60;;;;;;2557961;23;20009;-73
2022/09/03 00:13:15;;;;;;;2.75;1.30;;;18.60;56.90;;;;;;2568647;23;20496;-73
2022/09/03 00:14:33;;;;;;;4.10;1.63;;;18.50;56.90;;;;;;2568899;23;20008;-73
2022/09/03 00:15:36;;;;;;;4.82;1.85;;;18.50;57.20;;;;;;2568561;23;20000;-73
2022/09/03 00:17:21;;;;;;;4.90;1.40;;;18.60;56.90;;;;;;2567877;23;20393;-73
2022/09/03 00:18:30;;;;;;;1.95;1.20;;;18.50;57.00;;;;;;2568220;23;20013;-73
2022/09/03 00:19:39;;;;;;;1.85;1.13;;;18.50;57.00;;;;;;2569234;23;20426;-73
2022/09/03 00:20:51;;;;;;;1.92;1.27;;;18.50;57.00;;;;;;2568651;23;20011;-72
2022/09/03 00:22:06;;;;;;;1.50;1.35;;;18.50;56.90;;;;;;2568932;23;20007;-72
2022/09/03 00:23:11;;;;;;;1.70;1.08;;;18.50;57.10;;;;;;2567525;23;20437;-72
2022/09/03 00:24:15;;;;;;;2.25;1.17;;;18.50;57.00;;;;;;2555199;23;20035;-73
2022/09/03 00:25:21;;;;;;;3.95;1.13;;;18.50;57.00;;;;;;2555990;23;20035;-72
2022/09/03 00:26:29;;;;;;;1.23;0.88;;;18.50;57.00;;;;;;2568417;23;20426;-73
2022/09/03 00:27:36;;;;;;;2.45;1.00;;;18.50;57.00;;;;;;2555718;23;20001;-73
2022/09/03 00:28:51;;;;;;;1.58;1.17;;;18.50;57.10;;;;;;2555247;23;20005;-72
2022/09/03 00:30:12;;;;;;;3.53;1.17;;;18.50;57.20;;;;;;2558906;23;20365;-72
2022/09/03 00:31:23;;;;;;;1.67;1.10;;;18.50;57.40;;;;;;2568596;23;20036;-72
2022/09/03 00:32:32;;;;;;;1.23;1.10;;;18.50;57.30;;;;;;2568739;23;20000;-73
2022/09/03 00:33:34;;;;;;;3.23;1.30;;;18.50;57.10;;;;;;2568571;23;20001;-73
2022/09/03 00:34:40;;;;;;;1.67;0.95;;;18.40;57.10;;;;;;2568035;23;19997;-73
2022/09/03 00:36:10;;;;;;;4.15;1.30;;;18.40;57.30;;;;;;2568736;23;20001;-72
2022/09/03 00:37:11;;;;;;;1.33;1.20;;;18.40;57.60;;;;;;2536389;23;20009;-72
2022/09/03 00:38:11;;;;;;;2.25;1.30;;;18.40;57.20;;;;;;2555488;23;20008;-73
2022/09/03 00:39:18;;;;;;;2.17;1.20;;;18.40;57.30;;;;;;2568980;23;20047;-73
2022/09/03 00:40:52;;;;;;;6.15;1.17;;;18.50;57.30;;;;;;2568605;23;20008;-72
2022/09/03 00:42:34;;;;;;;2.38;1.05;;;18.50;57.40;;;;;;2548782;23;20070;-72
2022/09/03 00:44:12;;;;;;;2.03;1.10;;;18.40;57.40;;;;;;2568313;23;20001;-73
2022/09/03 00:45:33;;;;;;;1.70;0.95;;;18.40;57.70;;;;;;2518397;23;20627;-73
2022/09/03 00:46:47;;;;;;;2.05;1.38;;;18.40;57.70;;;;;;2568575;23;20076;-72
2022/09/03 00:47:53;;;;;;;2.60;1.17;;;18.40;57.60;;;;;;2568562;23;20008;-72
2022/09/03 00:49:06;;;;;;;1.55;0.90;;;18.40;57.50;;;;;;2568880;23;20003;-72
2022/09/03 00:50:12;;;;;;;1.02;0.90;;;18.40;57.60;;;;;;2568807;23;20303;-72
2022/09/03 00:51:35;;;;;;;2.58;1.35;;;18.40;57.50;;;;;;2555592;23;20077;-72
2022/09/03 00:52:51;;;;;;;2.28;0.85;;;18.40;58.00;;;;;;2536265;23;20464;-73
2022/09/03 00:54:39;;;;;;;4.88;1.20;;;18.40;57.60;;;;;;2555534;23;19997;-72
2022/09/03 00:55:57;;;;;;;3.78;1.02;;;18.40;58.00;;;;;;2555768;23;20001;-72
2022/09/03 00:57:07;;;;;;;1.77;0.95;;;18.30;57.90;;;;;;2556327;23;20011;-72
2022/09/03 00:58:11;;;;;;;1.10;0.95;;;18.30;57.80;;;;;;2555171;23;20002;-73
2022/09/03 00:59:27;;;;;;;3.88;1.50;;;18.30;57.80;;;;;;2555591;23;20039;-72
2022/09/03 01:00:29;;;;;;;1.15;0.82;;;18.30;57.90;;;;;;2556226;23;20102;-72
2022/09/03 01:01:48;;;;;;;1.35;1.17;;;18.30;57.60;;;;;;2555477;23;20056;-72
2022/09/03 01:03:10;;;;;;;2.63;1.10;;;18.30;58.00;;;;;;2554655;23;20074;-72
2022/09/03 01:04:42;;;;;;;1.10;1.00;;;18.30;57.90;;;;;;2555712;23;20223;-73
2022/09/03 01:05:49;;;;;;;2.25;1.10;;;18.30;58.10;;;;;;2555980;23;20410;-72
2022/09/03 01:06:59;;;;;;;1.35;1.10;;;18.30;58.10;;;;;;2556225;23;19997;-72
2022/09/03 01:08:14;;;;;;;1.08;0.90;;;18.30;58.10;;;;;;2556019;23;20004;-72
2022/09/03 01:09:38;;;;;;;1.30;1.13;;;18.30;58.20;;;;;;2555807;23;20548;-72
2022/09/03 01:11:03;;;;;;;3.28;1.10;;;18.30;58.20;;;;;;2556054;23;20012;-73
2022/09/03 01:12:13;;;;;;;1.85;0.90;;;18.30;58.20;;;;;;2555416;23;20001;-72
2022/09/03 01:13:21;;;;;;;2.10;0.93;;;18.20;57.90;;;;;;2554909;23;20005;-73
2022/09/03 01:14:37;;;;;;;1.83;1.00;;;18.20;58.10;;;;;;2555990;23;20001;-73
2022/09/03 01:15:53;;;;;;;3.85;1.42;;;18.30;58.20;;;;;;2556160;23;20043;-73
2022/09/03 01:17:05;;;;;;;5.32;1.15;;;18.20;58.30;;;;;;2555864;23;20124;-73
2022/09/03 01:18:39;;;;;;;1.08;0.98;;;18.20;58.40;;;;;;2556055;23;20080;-73
2022/09/03 01:19:58;;;;;;;1.75;1.00;;;18.20;58.40;;;;;;2536223;23;20064;-73
2022/09/03 01:21:22;;;;;;;1.88;1.17;;;18.20;58.60;;;;;;2556521;23;20001;-73
2022/09/03 01:23:01;;;;;;;1.70;1.30;;;18.20;58.60;;;;;;2555866;23;20001;-73
2022/09/03 01:24:27;;;;;;;2.10;1.13;;;18.20;58.40;;;;;;2554604;23;20067;-72
2022/09/03 01:25:44;;;;;;;0.90;0.90;;;18.20;58.60;;;;;;2555757;23;20029;-72
2022/09/03 01:27:06;;;;;;;1.20;1.10;;;18.20;58.60;;;;;;2556129;23;20028;-72
2022/09/03 01:28:31;;;;;;;1.52;1.17;;;18.20;58.60;;;;;;2555387;23;20609;-72
2022/09/03 01:30:03;;;;;;;1.20;0.90;;;18.20;58.60;;;;;;2555249;23;20461;-73
2022/09/03 01:31:23;;;;;;;1.60;1.15;;;18.20;58.50;;;;;;2555947;23;20456;-72
2022/09/03 01:32:49;;;;;;;2.58;1.10;;;18.20;59.00;;;;;;2556074;23;20013;-72
2022/09/03 01:34:02;;;;;;;3.28;0.82;;;18.10;58.70;;;;;;2545401;23;20005;-72
2022/09/03 01:35:23;;;;;;;1.60;1.00;;;18.20;58.40;;;;;;2555404;23;20314;-73
2022/09/03 01:36:43;;;;;;;3.97;1.10;;;18.20;58.50;;;;;;2554726;23;20397;-72
2022/09/03 01:38:07;;;;;;;6.00;1.35;;;18.20;58.50;;;;;;2555235;23;20005;-73
2022/09/03 01:39:16;;;;;;;1.45;0.90;;;18.20;58.80;;;;;;2556081;23;20005;-72
2022/09/03 01:40:23;;;;;;;1.52;1.15;;;18.20;58.50;;;;;;2555462;23;20009;-72
2022/09/03 01:43:17;;;;;;;3.72;0.98;;;18.20;58.70;;;;;;2555554;23;20001;-73
2022/09/03 01:44:38;;;;;;;1.95;1.10;;;18.20;58.80;;;;;;2556249;23;20012;-73
2022/09/03 01:46:02;;;;;;;2.53;1.30;;;18.20;58.70;;;;;;2555502;23;20012;-72
2022/09/03 01:47:48;;;;;;;3.30;1.30;;;18.20;58.60;;;;;;2555510;23;20060;-73
2022/09/03 01:49:00;;;;;;;1.73;1.10;;;18.20;58.90;;;;;;2555628;23;20441;-73
2022/09/03 01:50:20;;;;;;;5.32;1.58;;;18.20;58.90;;;;;;2556535;23;20076;-73
2022/09/03 01:51:24;;;;;;;1.33;1.00;;;18.20;59.00;;;;;;2556485;23;20009;-72
2022/09/03 01:52:42;;;;;;;1.08;0.90;;;18.20;58.70;;;;;;2559471;23;20016;-72
2022/09/03 01:54:26;;;;;;;1.38;0.80;;;18.20;59.40;;;;;;2568230;23;20024;-72
2022/09/03 01:55:46;;;;;;;2.85;1.05;;;18.20;59.00;;;;;;2518076;23;20018;-72
2022/09/03 01:57:15;;;;;;;1.40;0.95;;;18.10;59.00;;;;;;2559318;23;19998;-73
2022/09/03 01:59:05;;;;;;;1.05;0.95;;;18.10;59.10;;;;;;2568584;23;20004;-72
2022/09/03 02:00:12;;;;;;;1.98;1.00;;;18.10;59.30;;;;;;2517627;23;20522;-72
2022/09/03 02:01:22;;;;;;;2.50;1.10;;;18.10;59.10;;;;;;2518666;23;20014;-73
2022/09/03 02:02:25;;;;;;;2.45;0.98;;;18.10;59.00;;;;;;2518276;23;20070;-72
2022/09/03 02:03:34;;;;;;;1.98;1.10;;;18.10;58.90;;;;;;2506059;23;20099;-73
2022/09/03 02:04:35;;;;;;;4.28;0.80;;;18.10;59.00;;;;;;2508241;23;20003;-73
2022/09/03 02:05:38;;;;;;;3.03;1.08;;;18.10;58.80;;;;;;2544522;23;20036;-73
2022/09/03 02:06:39;;;;;;;4.13;1.10;;;18.10;58.90;;;;;;2568320;23;20020;-73
2022/09/03 02:07:51;;;;;;;1.38;0.95;;;18.10;58.90;;;;;;2568213;23;19993;-73
2022/09/03 02:08:52;;;;;;;2.78;0.90;;;18.20;59.10;;;;;;2555366;23;20005;-72
2022/09/03 02:09:53;;;;;;;2.25;1.05;;;18.20;59.00;;;;;;2555253;23;20013;-73
2022/09/03 02:11:00;;;;;;;1.67;1.10;;;18.10;58.90;;;;;;2567445;23;20646;-72
2022/09/03 02:12:14;;;;;;;3.88;0.80;;;18.10;58.90;;;;;;2554858;23;20059;-73
2022/09/03 02:13:25;;;;;;;1.60;0.95;;;18.20;59.40;;;;;;2557725;23;20005;-73
2022/09/03 02:14:27;;;;;;;0.98;0.82;;;18.20;59.00;;;;;;2554740;23;20005;-73
2022/09/03 02:15:31;;;;;;;1.27;1.10;;;18.10;58.90;;;;;;2555477;23;20087;-73
2022/09/03 02:16:33;;;;;;;3.63;1.08;;;18.20;59.20;;;;;;2568129;23;20008;-72
2022/09/03 02:17:35;;;;;;;1.00;0.88;;;18.10;59.10;;;;;;2568334;23;20024;-72
2022/09/03 02:18:40;;;;;;;1.63;0.88;;;18.20;59.20;;;;;;2554826;23;20005;-72
2022/09/03 02:19:41;;;;;;;1.35;1.20;;;18.20;59.30;;;;;;2555065;23;20016;-73
2022/09/03 02:20:42;;;;;;;0.90;0.90;;;18.10;59.00;;;;;;2555356;23;20013;-72
2022/09/03 02:21:50;;;;;;;1.08;0.98;;;18.10;59.10;;;;;;2568215;23;20000;-72
2022/09/03 02:22:53;;;;;;;1.17;0.90;;;18.10;59.00;;;;;;2568167;23;20364;-72
2022/09/03 02:23:53;;;;;;;1.15;1.05;;;18.10;59.10;;;;;;2568089;23;20479;-73
2022/09/03 02:24:54;;;;;;;3.22;1.02;;;18.10;59.00;;;;;;2568239;23;20008;-73
2022/09/03 02:26:16;;;;;;;1.02;0.85;;;18.10;59.20;;;;;;2568224;23;20051;-73
2022/09/03 02:27:18;;;;;;;1.25;1.15;;;18.10;59.30;;;;;;2568457;23;20511;-73
2022/09/03 02:28:19;;;;;;;2.10;1.10;;;18.10;59.40;;;;;;2554843;23;20009;-72
2022/09/03 02:29:20;;;;;;;2.63;1.23;;;18.10;60.00;;;;;;2554995;23;20437;-72
2022/09/03 02:30:21;;;;;;;3.63;1.20;;;18.10;59.30;;;;;;2555885;23;20400;-73
2022/09/03 02:31:22;;;;;;;0.98;0.93;;;18.00;59.40;;;;;;2569345;23;20009;-73
2022/09/03 02:32:23;;;;;;;2.20;1.00;;;18.10;59.60;;;;;;2555687;23;20029;-72
2022/09/03 02:33:24;;;;;;;0.90;0.90;;;18.00;59.50;;;;;;2555804;23;20001;-72
2022/09/03 02:34:25;;;;;;;1.13;1.02;;;18.00;59.50;;;;;;2568993;23;20047;-72
2022/09/03 02:35:26;;;;;;;0.88;0.80;;;18.00;59.60;;;;;;2556006;23;20096;-72
2022/09/03 02:36:33;;;;;;;4.07;1.00;;;18.00;59.80;;;;;;2555352;23;20000;-73
2022/09/03 02:37:36;;;;;;;1.23;1.00;;;18.00;59.70;;;;;;2569440;23;19996;-73
2022/09/03 02:38:37;;;;;;;1.10;1.00;;;18.00;59.70;;;;;;2569211;23;19997;-72
2022/09/03 02:39:38;;;;;;;1.58;1.20;;;18.00;59.70;;;;;;2569390;23;20429;-73
2022/09/03 02:40:38;;;;;;;4.60;1.05;;;18.00;59.80;;;;;;2555010;23;20327;-72
2022/09/03 02:41:39;;;;;;;3.10;0.80;;;18.00;59.90;;;;;;2556163;23;20514;-73
2022/09/03 02:42:40;;;;;;;6.65;1.38;;;18.00;59.80;;;;;;2568897;23;20329;-72
2022/09/03 02:43:50;;;;;;;1.63;1.20;;;18.00;59.90;;;;;;2569029;23;19993;-72
2022/09/03 02:44:56;;;;;;;1.23;0.93;;;18.00;60.00;;;;;;2567945;23;20000;-73
2022/09/03 02:46:21;;;;;;;1.55;0.90;;;18.00;60.10;;;;;;2568857;23;20027;-72
2022/09/03 02:47:43;;;;;;;1.27;0.98;;;18.00;60.20;;;;;;2568432;23;20328;-72
2022/09/03 02:48:44;;;;;;;0.70;0.70;;;17.90;60.20;;;;;;2555753;23;20033;-73
2022/09/03 02:49:48;;;;;;;2.25;1.05;;;17.90;59.90;;;;;;2555553;23;20004;-72
2022/09/03 02:50:48;;;;;;;6.13;1.20;;;17.90;60.30;;;;;;2561676;23;20127;-72
2022/09/03 02:51:49;;;;;;;1.30;0.80;;;17.90;60.40;;;;;;2568747;23;20051;-73
2022/09/03 02:52:50;;;;;;;1.77;1.10;;;17.90;60.30;;;;;;2569012;23;20005;-72
2022/09/03 02:53:50;;;;;;;1.00;1.00;;;17.90;61.10;;;;;;2568635;23;19997;-73
2022/09/03 02:54:51;;;;;;;2.58;1.02;;;17.90;60.10;;;;;;2568860;23;20421;-72
2022/09/03 02:55:51;;;;;;;2.45;0.90;;;17.90;60.50;;;;;;2569014;23;20005;-72
2022/09/03 02:56:52;;;;;;;1.75;1.10;;;17.90;60.60;;;;;;2569312;23;20005;-72
2022/09/03 02:57:53;;;;;;;2.45;1.00;;;17.90;60.60;;;;;;2568916;23;20724;-72
2022/09/03 02:58:53;;;;;;;2.03;0.80;;;17.80;60.80;;;;;;2569004;23;20004;-72
2022/09/03 02:59:54;;;;;;;1.17;1.08;;;17.80;60.40;;;;;;2568910;23;20001;-72
2022/09/03 03:00:55;;;;;;;1.60;0.80;;;17.80;60.40;;;;;;2568957;23;20004;-72
2022/09/03 03:01:55;;;;;;;1.25;1.00;;;17.80;60.20;;;;;;2568692;23;19996;-72
2022/09/03 03:02:56;;;;;;;2.22;1.00;;;17.80;60.80;;;;;;2569002;23;20456;-72
2022/09/03 03:03:56;;;;;;;6.32;1.08;;;17.80;60.60;;;;;;2555257;23;20047;-72
2022/09/03 03:04:57;;;;;;;1.38;0.95;;;17.80;60.40;;;;;;2555384;23;20005;-72
2022/09/03 03:06:01;;;;;;;0.95;0.88;;;17.80;60.80;;;;;;2568749;23;20009;-72
2022/09/03 03:07:04;;;;;;;1.02;1.02;;;17.80;60.90;;;;;;2568260;23;20004;-72
2022/09/03 03:08:05;;;;;;;3.65;0.93;;;17.80;60.90;;;;;;2569252;23;19997;-72
2022/09/03 03:09:07;;;;;;;0.80;0.80;;;17.80;61.20;;;;;;2555417;23;20410;-72
2022/09/03 03:10:08;;;;;;;1.02;1.02;;;17.80;61.10;;;;;;2555660;23;20029;-72
2022/09/03 03:11:09;;;;;;;2.47;0.93;;;17.70;60.90;;;;;;2569004;23;20012;-72
2022/09/03 03:12:09;;;;;;;1.92;0.77;;;17.70;61.20;;;;;;2569208;23;20000;-72
2022/09/03 03:13:10;;;;;;;3.00;1.00;;;17.70;61.50;;;;;;2568537;23;20434;-72
2022/09/03 03:14:11;;;;;;;3.25;1.02;;;17.70;61.60;;;;;;2569080;23;20047;-72
2022/09/03 03:15:12;;;;;;;2.97;0.90;;;17.70;61.50;;;;;;2568902;23;20047;-72
2022/09/03 03:16:14;;;;;;;1.38;1.02;;;17.70;61.00;;;;;;2568512;23;20067;-72
2022/09/03 03:17:15;;;;;;;1.00;0.90;;;17.70;61.50;;;;;;2568825;23;20501;-72
2022/09/03 03:18:16;;;;;;;1.05;0.90;;;17.60;61.50;;;;;;2568830;23;20031;-72
2022/09/03 03:19:17;;;;;;;1.08;1.00;;;17.60;61.60;;;;;;2569294;23;20052;-72
2022/09/03 03:20:17;;;;;;;1.73;1.10;;;17.60;62.20;;;;;;2568215;23;20008;-73
2022/09/03 03:21:18;;;;;;;1.05;0.95;;;17.60;62.30;;;;;;2568498;23;20275;-72
2022/09/03 03:22:19;;;;;;;1.70;1.00;;;17.60;62.70;;;;;;2568996;23;20667;-72
2022/09/03 03:23:20;;;;;;;1.40;1.05;;;17.60;62.90;;;;;;2555419;23;19999;-72
2022/09/03 03:24:21;;;;;;;2.35;1.02;;;17.50;62.60;;;;;;2555810;23;20012;-72
2022/09/03 03:25:21;;;;;;;1.27;1.05;;;17.50;63.00;;;;;;2556020;23;20036;-72
2022/09/03 03:26:23;;;;;;;1.60;0.90;;;17.50;63.00;;;;;;2554745;23;20342;-72
2022/09/03 03:27:23;;;;;;;2.05;1.15;;;17.40;63.00;;;;;;2556177;23;20059;-72
2022/09/03 03:28:24;;;;;;;2.25;1.17;;;17.40;63.00;;;;;;2568715;23;20051;-72
2022/09/03 03:29:25;;;;;;;2.15;1.20;;;17.40;63.60;;;;;;2568974;23;20080;-72
2022/09/03 03:30:26;;;;;;;0.80;0.80;;;17.40;63.40;;;;;;2568887;23;20487;-72
2022/09/03 03:31:27;;;;;;;3.05;0.90;;;17.40;63.50;;;;;;2555103;23;20009;-74
2022/09/03 03:32:28;;;;;;;1.63;0.77;;;17.40;63.50;;;;;;2555541;23;20004;-74
2022/09/03 03:33:28;;;;;;;1.15;0.98;;;17.40;63.00;;;;;;2555388;23;20004;-74
2022/09/03 03:34:29;;;;;;;3.58;0.90;;;17.40;63.00;;;;;;2555709;23;20002;-74
2022/09/03 03:35:29;;;;;;;2.05;1.20;;;17.40;63.30;;;;;;2556114;23;20409;-74
2022/09/03 03:36:32;;;;;;;1.40;1.30;;;17.40;63.80;;;;;;2568280;23;20004;-74
2022/09/03 03:37:34;;;;;;;1.52;1.25;;;17.40;64.00;;;;;;2568775;23;20035;-74
2022/09/03 03:38:35;;;;;;;2.08;1.00;;;17.30;64.00;;;;;;2568990;23;19993;-74
2022/09/03 03:39:36;;;;;;;1.75;1.00;;;17.30;64.40;;;;;;2568880;23;20021;-74
2022/09/03 03:40:38;;;;;;;2.45;1.63;;;17.30;64.60;;;;;;2568332;23;20005;-72
2022/09/03 03:41:39;;;;;;;1.30;1.05;;;17.30;64.20;;;;;;2555164;23;20385;-74
2022/09/03 03:42:40;;;;;;;1.73;1.20;;;17.30;64.60;;;;;;2555623;23;20378;-74
2022/09/03 03:43:41;;;;;;;1.38;1.00;;;17.20;64.90;;;;;;2568167;23;20063;-74
2022/09/03 03:44:42;;;;;;;1.15;0.98;;;17.20;64.60;;;;;;2569017;23;20047;-72
2022/09/03 03:45:43;;;;;;;1.52;1.20;;;17.20;64.80;;;;;;2568547;23;20000;-71
2022/09/03 03:46:44;;;;;;;3.63;1.17;;;17.20;65.00;;;;;;2568843;23;20088;-74
2022/09/03 03:47:44;;;;;;;1.08;0.95;;;17.20;65.70;;;;;;2568595;23;19997;-74
2022/09/03 03:48:47;;;;;;;1.75;0.93;;;17.20;65.40;;;;;;2568636;23;19997;-71
2022/09/03 03:49:47;;;;;;;1.48;1.27;;;17.20;65.30;;;;;;2569258;23;20007;-71
2022/09/03 03:50:48;;;;;;;0.77;0.77;;;17.20;65.90;;;;;;2568725;23;20027;-71
2022/09/03 03:51:48;;;;;;;3.05;1.20;;;17.20;65.30;;;;;;2568382;23;20066;-74
2022/09/03 03:52:49;;;;;;;2.33;1.20;;;17.10;65.90;;;;;;2568715;23;20046;-74
2022/09/03 03:53:54;;;;;;;1.45;1.08;;;17.10;66.00;;;;;;2568809;23;20411;-74
2022/09/03 03:54:55;;;;;;;1.55;1.10;;;17.10;66.40;;;;;;2555381;23;20009;-74
2022/09/03 03:55:58;;;;;;;1.30;0.90;;;17.10;65.80;;;;;;2556210;23;20008;-74
2022/09/03 03:56:58;;;;;;;1.20;1.10;;;17.10;65.90;;;;;;2555726;23;20468;-74
2022/09/03 03:57:59;;;;;;;2.83;1.13;;;17.10;65.60;;;;;;2555468;23;20377;-74
2022/09/03 03:59:00;;;;;;;2.65;1.20;;;17.00;66.10;;;;;;2555818;23;20005;-74
2022/09/03 04:00:00;;;;;;;2.17;1.10;;;17.00;66.10;;;;;;2555284;23;20442;-74
2022/09/03 04:01:16;;;;;;;1.65;1.40;;;17.00;66.70;;;;;;2568653;23;20032;-74
2022/09/03 04:02:17;;;;;;;3.50;1.30;;;17.00;66.50;;;;;;2568876;23;20008;-74
2022/09/03 04:03:18;;;;;;;2.03;1.38;;;17.00;67.00;;;;;;2568459;23;20079;-74
2022/09/03 04:04:19;;;;;;;2.10;1.05;;;17.00;66.50;;;;;;2555056;23;20009;-74
2022/09/03 04:05:20;;;;;;;5.80;1.48;;;16.90;66.60;;;;;;2543616;23;20013;-74
2022/09/03 04:06:20;;;;;;;1.15;1.08;;;17.00;66.70;;;;;;2554950;23;20910;-74
2022/09/03 04:07:21;;;;;;;1.23;1.00;;;16.90;66.70;;;;;;2568762;23;20007;-74
2022/09/03 04:08:24;;;;;;;1.73;1.40;;;16.90;67.00;;;;;;2568914;23;20008;-74
2022/09/03 04:09:24;;;;;;;1.52;1.38;;;16.90;67.20;;;;;;2569000;23;20000;-74
2022/09/03 04:10:25;;;;;;;2.22;1.33;;;16.90;67.30;;;;;;2568421;23;20005;-73
2022/09/03 04:11:26;;;;;;;2.25;1.27;;;16.90;67.40;;;;;;2568831;23;19996;-74
2022/09/03 04:12:26;;;;;;;1.83;1.20;;;16.80;67.90;;;;;;2568300;23;20001;-74
2022/09/03 04:13:36;;;;;;;1.83;1.20;;;16.80;67.40;;;;;;2568500;23;19997;-74
2022/09/03 04:14:37;;;;;;;3.53;1.20;;;16.80;68.40;;;;;;2568708;23;20425;-74
2022/09/03 04:15:38;;;;;;;1.92;1.27;;;16.70;67.80;;;;;;2555366;23;20037;-74
2022/09/03 04:16:38;;;;;;;2.28;1.38;;;16.70;67.80;;;;;;2555519;23;20072;-74
2022/09/03 04:17:39;;;;;;;2.53;1.27;;;16.70;68.40;;;;;;2568496;23;20405;-74
2022/09/03 04:18:40;;;;;;;1.50;1.40;;;16.70;68.40;;;;;;2568990;23;20302;-74
2022/09/03 04:19:41;;;;;;;3.22;1.40;;;16.70;68.00;;;;;;2568781;23;19996;-74
2022/09/03 04:20:41;;;;;;;1.70;1.45;;;16.70;68.40;;;;;;2568767;23;20341;-74
2022/09/03 04:21:42;;;;;;;2.05;1.50;;;16.60;69.20;;;;;;2568516;23;20001;-74
2022/09/03 04:22:43;;;;;;;2.33;1.60;;;16.60;68.90;;;;;;2568855;23;20000;-74
2022/09/03 04:23:46;;;;;;;1.75;1.20;;;16.60;69.10;;;;;;2568407;23;20298;-74
2022/09/03 04:24:46;;;;;;;5.03;1.42;;;16.60;69.10;;;;;;2568183;23;20425;-74
2022/09/03 04:25:51;;;;;;;2.67;1.40;;;16.60;68.80;;;;;;2568619;23;20315;-71
2022/09/03 04:26:53;;;;;;;1.38;1.27;;;16.60;70.00;;;;;;2568193;23;20009;-74
2022/09/03 04:27:53;;;;;;;2.00;1.25;;;16.60;70.30;;;;;;2568401;23;20107;-74
2022/09/03 04:28:54;;;;;;;2.63;1.55;;;16.50;70.30;;;;;;2568693;23;20425;-74
2022/09/03 04:29:56;;;;;;;2.03;1.55;;;16.50;70.40;;;;;;2568571;23;20012;-74
2022/09/03 04:31:07;;;;;;;2.25;1.67;;;16.50;70.90;;;;;;2568671;23;20016;-74
2022/09/03 04:33:31;;;;;;;2.80;1.48;;;16.40;69.90;;;;;;2568481;23;20009;-75
2022/09/03 04:34:31;;;;;;;2.38;1.42;;;16.40;71.40;;;;;;2555285;23;20017;-74
2022/09/03 04:35:33;;;;;;;1.52;1.27;;;16.40;71.60;;;;;;2555308;23;20037;-74
2022/09/03 04:36:33;;;;;;;1.67;1.40;;;16.30;71.10;;;;;;2567860;23;20058;-74
2022/09/03 04:37:35;;;;;;;4.05;1.30;;;16.30;71.50;;;;;;2568443;23;20024;-74
2022/09/03 04:38:42;;;;;;;2.28;1.17;;;16.30;72.00;;;;;;2568974;23;20004;-74
2022/09/03 04:39:42;;;;;;;6.82;1.50;;;16.30;71.20;;;;;;2555381;23;20554;-74
2022/09/03 04:40:43;;;;;;;2.10;1.30;;;16.30;72.20;;;;;;2555206;23;20005;-74
2022/09/03 04:41:43;;;;;;;4.65;1.52;;;16.30;73.40;;;;;;2568649;23;20005;-74
2022/09/03 04:42:44;;;;;;;2.45;1.27;;;16.30;73.20;;;;;;2568681;23;20310;-74
2022/09/03 04:43:47;;;;;;;2.63;1.45;;;16.20;72.90;;;;;;2568135;23;19997;-74
2022/09/03 04:44:48;;;;;;;1.83;1.45;;;16.20;73.40;;;;;;2568629;23;20399;-74
2022/09/03 04:45:48;;;;;;;3.80;1.40;;;16.20;74.60;;;;;;2568516;23;20329;-74
2022/09/03 04:46:49;;;;;;;1.88;1.38;;;16.20;74.40;;;;;;2555533;23;20001;-74
2022/09/03 04:48:01;;;;;;;2.65;1.17;;;16.10;73.50;;;;;;2555351;23;20934;-74
2022/09/03 04:49:01;;;;;;;2.33;1.30;;;16.10;74.30;;;;;;2568480;23;20054;-74
2022/09/03 04:50:04;;;;;;;3.47;1.55;;;16.10;75.30;;;;;;2568603;23;20005;-74
2022/09/03 04:51:10;;;;;;;3.28;1.70;;;16.10;75.10;;;;;;2568361;23;20075;-74
2022/09/03 04:52:11;;;;;;;2.50;1.42;;;16.10;75.40;;;;;;2568123;23;20012;-74
2022/09/03 04:53:11;;;;;;;1.92;1.45;;;16.10;75.00;;;;;;2567404;23;20016;-74
2022/09/03 04:54:12;;;;;;;1.58;1.27;;;16.10;74.80;;;;;;2568105;23;20012;-74
2022/09/03 04:55:12;;;;;;;1.50;1.38;;;16.10;75.60;;;;;;2567829;23;20471;-74
2022/09/03 04:56:18;;;;;;;1.83;1.23;;;16.00;75.40;;;;;;2567607;23;20709;-74
2022/09/03 04:57:18;;;;;;;1.48;1.38;;;16.00;75.00;;;;;;2568285;23;20313;-74
2022/09/03 04:58:19;;;;;;;3.55;1.48;;;16.00;74.90;;;;;;2554050;23;20037;-74
2022/09/03 04:59:20;;;;;;;1.35;1.13;;;16.00;75.50;;;;;;2554876;23;20083;-74
2022/09/03 05:00:21;;;;;;;3.00;1.38;;;16.00;76.30;;;;;;2568049;23;20066;-74
2022/09/03 05:01:24;;;;;;;4.85;1.17;;;15.90;77.80;;;;;;2568283;23;20005;-74
2022/09/03 05:02:25;;;;;;;3.03;1.00;;;15.90;76.80;;;;;;2568406;23;20444;-74
2022/09/03 05:03:26;;;;;;;1.67;1.55;;;15.90;77.20;;;;;;2554665;23;20583;-74
2022/09/03 05:04:27;;;;;;;1.60;1.40;;;15.90;78.10;;;;;;2554955;23;20020;-74
2022/09/03 05:05:28;;;;;;;3.30;1.30;;;15.90;76.80;;;;;;2567857;23;20001;-74
2022/09/03 05:06:30;;;;;;;2.75;1.13;;;15.90;76.70;;;;;;2567955;23;20670;-73
2022/09/03 05:07:37;;;;;;;3.92;1.45;;;15.90;77.00;;;;;;2554901;23;20001;-74
2022/09/03 05:08:39;;;;;;;2.17;1.35;;;15.90;77.70;;;;;;2556341;23;20076;-74
2022/09/03 05:09:40;;;;;;;1.95;1.20;;;15.80;77.50;;;;;;2567902;23;20594;-74
2022/09/03 05:10:41;;;;;;;2.45;1.30;;;15.90;77.00;;;;;;2553990;23;20009;-74
2022/09/03 05:11:41;;;;;;;1.48;1.13;;;15.90;77.50;;;;;;2555022;23;20108;-73
2022/09/03 05:12:42;;;;;;;1.83;1.30;;;15.80;77.30;;;;;;2567981;23;20001;-74
2022/09/03 05:13:47;;;;;;;3.55;1.20;;;15.80;77.90;;;;;;2567576;23;20005;-74
2022/09/03 05:14:48;;;;;;;3.00;1.20;;;15.90;78.60;;;;;;2568259;23;19997;-74
2022/09/03 05:15:48;;;;;;;2.80;1.17;;;15.80;78.60;;;;;;2567901;23;20024;-74
2022/09/03 05:16:50;;;;;;;2.08;1.40;;;15.80;79.10;;;;;;2567976;23;20555;-73
2022/09/03 05:17:55;;;;;;;1.30;1.20;;;15.80;79.30;;;;;;2567784;23;20075;-73
2022/09/03 05:18:58;;;;;;;1.80;1.48;;;15.80;79.80;;;;;;2568218;23;20005;-73
2022/09/03 05:19:59;;;;;;;4.53;1.48;;;15.80;79.50;;;;;;2567982;23;20001;-73
2022/09/03 05:21:01;;;;;;;3.60;1.30;;;15.80;79.10;;;;;;2567533;23;20325;-74
2022/09/03 05:22:01;;;;;;;1.20;1.10;;;15.80;79.50;;;;;;2568349;23;20269;-73
2022/09/03 05:23:02;;;;;;;1.63;1.33;;;15.80;78.90;;;;;;2567637;23;20078;-74
2022/09/03 05:24:04;;;;;;;4.20;1.40;;;15.80;79.50;;;;;;2568243;23;20046;-74
2022/09/03 05:25:05;;;;;;;2.25;1.30;;;15.80;78.40;;;;;;2554449;23;20041;-74
2022/09/03 05:26:08;;;;;;;2.05;1.40;;;15.80;78.20;;;;;;2553314;23;20007;-74
2022/09/03 05:27:08;;;;;;;1.55;1.45;;;15.80;79.40;;;;;;2553688;23;20005;-74
2022/09/03 05:28:09;;;;;;;1.70;1.20;;;15.80;79.60;;;;;;2554049;23;20005;-74
2022/09/03 05:29:10;;;;;;;3.78;1.38;;;15.80;79.70;;;;;;2554798;23;19997;-74
2022/09/03 05:30:11;;;;;;;2.35;1.30;;;15.80;79.30;;;;;;2568042;23;20050;-74
2022/09/03 05:31:15;;;;;;;1.88;1.13;;;15.80;80.10;;;;;;2567966;23;20008;-74
2022/09/03 05:32:16;;;;;;;1.40;1.20;;;15.80;79.60;;;;;;2554317;23;20013;-74
2022/09/03 05:33:16;;;;;;;2.70;1.50;;;15.80;80.20;;;;;;2554112;23;20005;-74
2022/09/03 05:34:17;;;;;;;2.15;1.15;;;15.80;79.80;;;;;;2568199;23;20767;-74
2022/09/03 05:35:18;;;;;;;2.75;1.02;;;15.80;81.50;;;;;;2567186;23;20004;-74
2022/09/03 05:36:24;;;;;;;2.13;1.40;;;15.80;81.30;;;;;;2567985;23;20000;-74
2022/09/03 05:37:24;;;;;;;1.58;1.40;;;15.90;82.50;;;;;;2568065;23;20001;-74
2022/09/03 05:38:25;;;;;;;1.55;1.40;;;15.80;81.80;;;;;;2554563;23;20489;-74
2022/09/03 05:39:26;;;;;;;7.95;1.60;;;15.90;81.60;;;;;;2555108;23;20009;-73
2022/09/03 05:40:26;;;;;;;3.33;1.35;;;15.90;82.90;;;;;;2567569;23;20011;-74
2022/09/03 05:41:28;;;;;;;1.80;1.30;;;15.90;83.60;;;;;;2567836;23;20011;-73
2022/09/03 05:42:34;;;;;;;2.45;1.60;;;15.90;84.30;;;;;;2568164;23;20001;-74
2022/09/03 05:43:35;;;;;;;3.55;1.25;;;16.00;85.20;;;;;;2567103;23;19996;-74
2022/09/03 05:44:35;;;;;;;2.72;1.20;;;16.00;84.00;;;;;;2568234;23;19993;-74
2022/09/03 05:45:36;;;;;;;2.53;1.30;;;16.00;83.70;;;;;;2554657;23;20005;-74
2022/09/03 05:46:37;;;;;;;1.00;0.90;;;16.10;86.10;;;;;;2554436;23;20052;-74
2022/09/03 05:47:38;;;;;;;1.48;1.30;;;16.10;86.40;;;;;;2554563;23;20013;-73
2022/09/03 05:48:39;;;;;;;4.90;1.40;;;16.10;87.80;;;;;;2554613;23;20452;-74
2022/09/03 05:49:40;;;;;;;1.85;1.33;;;16.20;88.90;;;;;;2554978;23;19997;-74
2022/09/03 05:50:41;;;;;;;1.05;1.02;;;16.20;89.60;;;;;;2554020;23;20005;-74